Time;durP1;ratioP1;P1;durP2;ratioP2;P2;SDS_P1;SDS_P2;PMS_P1;PMS_P2;Temp;Humidity;BMP_temperature;BMP_pressure;BME280_temperature;BME280_humidity;BME280_pressure;Samples;Min_cycle;Max_cycle;Signal;HPM_P1;HPM_P2
2021/12/31 00:01:09;;;;;;;10.23;2.90;;;;;;;-149.78;100.00;50487.09;5113211;28;20092;-61
2021/12/31 00:03:34;;;;;;;10.15;2.75;;;;;;;-149.78;100.00;50455.81;5112403;28;20023;-61
2021/12/31 00:06:00;;;;;;;6.95;2.85;;;;;;;-149.78;100.00;50506.66;5111380;28;20042;-61
2021/12/31 00:08:26;;;;;;;6.90;3.85;;;;;;;-149.78;100.00;50514.47;5091413;28;20055;-61
2021/12/31 00:10:59;;;;;;;11.02;3.03;;;;;;;-149.78;100.00;50494.91;5088964;28;20093;-61
2021/12/31 00:13:26;;;;;;;6.45;2.88;;;;;;;-149.78;100.00;50491.00;5111852;28;20051;-61
2021/12/31 00:15:52;;;;;;;8.88;2.80;;;;;;;-149.78;100.00;50463.63;5113239;28;20175;-61
2021/12/31 00:18:19;;;;;;;8.98;3.10;;;;;;;-149.78;100.00;50518.38;5112426;28;20034;-61
2021/12/31 00:20:44;;;;;;;7.70;2.90;;;;;;;-149.78;100.00;50506.66;5093755;28;20122;-61
2021/12/31 00:23:13;;;;;;;6.15;2.88;;;;;;;-149.78;100.00;50463.63;5112327;28;20067;-64
2021/12/31 00:25:41;;;;;;;6.20;2.65;;;;;;;-149.78;100.00;50530.13;5093704;28;20044;-62
2021/12/31 00:28:09;;;;;;;7.55;2.72;;;;;;;-149.78;100.00;50487.09;5111915;28;20035;-61
2021/12/31 00:30:36;;;;;;;7.70;2.58;;;;;;;-149.78;100.00;50498.81;5115659;28;20038;-61
2021/12/31 00:33:02;;;;;;;7.07;2.20;;;;;;;-149.78;100.00;50534.03;5115728;28;20031;-61
2021/12/31 00:35:29;;;;;;;6.75;2.65;;;;;;;-149.78;100.00;50510.56;5113356;28;20028;-63
2021/12/31 00:37:55;;;;;;;7.47;2.22;;;;;;;-149.78;100.00;50465.56;5115832;28;20046;-61
2021/12/31 00:40:21;;;;;;;8.32;1.83;;;;;;;-149.78;100.00;50510.56;5115750;28;20044;-61
2021/12/31 00:42:47;;;;;;;7.57;2.17;;;;;;;-149.78;100.00;50526.22;5115477;28;20035;-61
2021/12/31 00:45:15;;;;;;;7.93;2.58;;;;;;;-149.78;100.00;50510.56;5097530;28;20032;-62
2021/12/31 00:47:41;;;;;;;8.52;3.08;;;;;;;-149.78;100.00;50494.91;5115993;28;20462;-61
2021/12/31 00:50:08;;;;;;;10.05;3.22;;;;;;;-149.78;100.00;50530.13;5116328;28;20031;-61
2021/12/31 00:52:34;;;;;;;7.70;2.70;;;;;;;-149.78;100.00;50502.75;5098463;28;20217;-61
2021/12/31 00:55:00;;;;;;;8.10;2.88;;;;;;;-149.78;100.00;50491.00;5116572;28;20028;-61
2021/12/31 00:57:26;;;;;;;8.75;3.03;;;;;;;-149.78;100.00;50491.00;5098388;28;20032;-61
2021/12/31 00:59:52;;;;;;;8.98;2.58;;;;;;;-149.78;100.00;50491.00;5116373;28;20436;-61
2021/12/31 01:02:21;;;;;;;10.43;2.75;;;;;;;-149.78;100.00;50494.91;5116402;28;20555;-61
2021/12/31 01:04:46;;;;;;;12.38;2.80;;;;;;;-149.78;100.00;50496.88;5116273;28;20092;-61
2021/12/31 01:07:12;;;;;;;9.77;2.80;;;;;;;-149.78;100.00;50502.75;5097987;28;20474;-63
2021/12/31 01:09:38;;;;;;;7.43;2.45;;;;;;;-149.78;100.00;50510.56;5116112;28;20403;-61
2021/12/31 01:12:07;;;;;;;10.43;2.88;;;;;;;-149.78;100.00;50475.34;5080987;28;20035;-61
2021/12/31 01:15:20;;;;;;;12.20;3.38;;;;;;;-149.78;100.00;50526.22;5116021;28;20130;-61
2021/12/31 01:17:40;;;;;;;8.90;2.58;;;;;;;-149.78;100.00;50481.22;5107538;28;20043;-62
2021/12/31 01:20:06;;;;;;;11.98;2.60;;;;;;;-149.78;100.00;50514.47;5116160;28;20032;-61
2021/12/31 01:22:33;;;;;;;9.07;2.72;;;;;;;-149.78;100.00;50479.28;5115793;28;20055;-61
2021/12/31 01:25:00;;;;;;;12.55;2.47;;;;;;;-149.78;100.00;50504.69;5115849;28;20035;-63
2021/12/31 01:27:26;;;;;;;7.75;2.50;;;;;;;-149.78;100.00;50520.34;5115536;28;20036;-62
2021/12/31 01:29:52;;;;;;;13.68;2.78;;;;;;;-149.78;100.00;50475.34;5115691;28;20100;-62
2021/12/31 01:32:17;;;;;;;14.10;3.17;;;;;;;-149.78;100.00;50467.53;5115698;28;20032;-63
2021/12/31 01:34:43;;;;;;;11.52;2.92;;;;;;;-149.78;100.00;50487.09;5114289;28;20036;-62
2021/12/31 01:37:10;;;;;;;7.32;2.67;;;;;;;-149.78;100.00;50496.88;5096662;28;20070;-62
2021/12/31 01:39:37;;;;;;;11.43;2.95;;;;;;;-149.78;100.00;50483.19;5114276;28;20030;-62
2021/12/31 01:42:06;;;;;;;7.13;2.20;;;;;;;-149.78;100.00;50487.09;5111666;28;20126;-63
2021/12/31 01:44:39;;;;;;;12.52;3.15;;;;;;;-149.78;100.00;50506.66;5114492;28;20028;-63
2021/12/31 01:47:10;;;;;;;13.23;2.67;;;;;;;-149.78;100.00;50489.03;5112001;28;20509;-62
2021/12/31 01:49:39;;;;;;;11.82;2.70;;;;;;;-149.78;100.00;50522.28;5115142;28;20046;-62
2021/12/31 01:52:07;;;;;;;8.13;2.63;;;;;;;-149.78;100.00;50494.91;5115217;28;20142;-62
2021/12/31 01:54:34;;;;;;;16.95;2.90;;;;;;;-149.78;100.00;50494.91;5115108;28;20564;-62
2021/12/31 01:57:05;;;;;;;10.32;2.38;;;;;;;-149.78;100.00;50510.56;5114912;28;20032;-62
2021/12/31 01:59:35;;;;;;;14.85;4.70;;;;;;;-149.78;100.00;50487.09;5114813;28;20486;-62
2021/12/31 02:02:00;;;;;;;9.07;2.60;;;;;;;-149.78;100.00;50475.34;5114739;28;20035;-63
2021/12/31 02:04:29;;;;;;;13.90;3.38;;;;;;;-149.78;100.00;50506.66;5114953;28;20046;-62
2021/12/31 02:06:55;;;;;;;11.82;2.65;;;;;;;-149.78;100.00;50520.34;5113929;28;20031;-62
2021/12/31 02:09:21;;;;;;;14.05;3.10;;;;;;;-149.78;100.00;50487.09;5113820;28;20035;-62
2021/12/31 02:11:46;;;;;;;11.82;3.05;;;;;;;-149.78;100.00;50496.88;5113870;28;20054;-62
2021/12/31 02:14:12;;;;;;;8.73;2.50;;;;;;;-149.78;100.00;50465.56;5114744;28;20135;-62
2021/12/31 02:16:38;;;;;;;12.60;2.70;;;;;;;-149.78;100.00;50518.38;5096436;28;20039;-62
2021/12/31 02:19:12;;;;;;;10.48;3.40;;;;;;;-149.78;100.00;50483.19;5113694;28;20051;-62
2021/12/31 02:21:38;;;;;;;10.95;3.33;;;;;;;-149.78;100.00;50491.00;5113196;28;20036;-63
2021/12/31 02:24:06;;;;;;;16.40;3.67;;;;;;;-149.78;100.00;50534.03;5113833;28;20046;-62
2021/12/31 02:26:32;;;;;;;9.63;2.53;;;;;;;-149.78;100.00;50491.00;5114511;28;20031;-63
2021/12/31 02:28:58;;;;;;;10.57;2.55;;;;;;;-149.78;100.00;50502.75;5114675;28;20048;-62
2021/12/31 02:31:23;;;;;;;11.95;3.30;;;;;;;-149.78;100.00;50514.47;5114735;28;20141;-62
2021/12/31 02:33:50;;;;;;;18.40;3.10;;;;;;;-149.78;100.00;50504.69;5114536;28;20036;-63
2021/12/31 02:36:16;;;;;;;11.20;2.90;;;;;;;-149.78;100.00;50471.44;5114683;28;20032;-63
2021/12/31 02:38:44;;;;;;;12.85;2.72;;;;;;;-149.78;100.00;50479.28;5114406;28;20067;-63
2021/12/31 02:41:10;;;;;;;15.20;3.05;;;;;;;-149.78;100.00;50451.88;5113714;28;20039;-63
2021/12/31 02:43:37;;;;;;;12.48;3.03;;;;;;;-149.78;100.00;50489.03;5113284;28;20066;-62
2021/12/31 02:46:02;;;;;;;11.65;2.97;;;;;;;-149.78;100.00;50471.44;5113126;28;20038;-62
2021/12/31 02:48:28;;;;;;;14.10;2.90;;;;;;;-149.78;100.00;50504.69;5113435;28;20039;-63
2021/12/31 02:50:58;;;;;;;10.75;2.88;;;;;;;-149.78;100.00;50489.03;5112643;28;20027;-63
2021/12/31 02:53:31;;;;;;;7.97;2.78;;;;;;;-149.78;100.00;50473.41;5110644;28;20032;-62
2021/12/31 02:56:06;;;;;;;13.10;2.90;;;;;;;-149.78;100.00;50491.00;5113170;28;20027;-62
2021/12/31 02:58:33;;;;;;;9.68;2.53;;;;;;;-149.78;100.00;50491.00;5113121;28;20058;-63
2021/12/31 03:00:59;;;;;;;13.57;2.67;;;;;;;-149.78;100.00;50469.50;5113169;28;20454;-62
2021/12/31 03:03:25;;;;;;;12.50;2.92;;;;;;;-149.78;100.00;50491.00;5110340;28;20363;-63
2021/12/31 03:05:53;;;;;;;11.13;2.97;;;;;;;-149.78;100.00;50512.50;5113669;28;20055;-62
2021/12/31 03:08:23;;;;;;;11.82;3.15;;;;;;;-149.78;100.00;50459.72;5114057;28;20091;-62
2021/12/31 03:10:49;;;;;;;19.70;3.15;;;;;;;-149.78;100.00;50494.91;5113701;28;20034;-62
2021/12/31 03:13:17;;;;;;;13.07;3.25;;;;;;;-149.78;100.00;50483.19;5113709;28;20490;-62
2021/12/31 03:15:43;;;;;;;12.00;2.90;;;;;;;-149.78;100.00;50489.03;5095684;28;20040;-62
2021/12/31 03:18:10;;;;;;;8.40;3.00;;;;;;;-149.78;100.00;50498.81;5113746;28;20045;-62
2021/12/31 03:20:41;;;;;;;13.75;3.05;;;;;;;-149.78;100.00;50491.00;5113774;28;20398;-62
2021/12/31 03:23:07;;;;;;;12.45;3.70;;;;;;;-149.78;100.00;50516.44;5113756;28;20035;-63
2021/12/31 03:25:33;;;;;;;11.80;3.08;;;;;;;-149.78;100.00;50528.16;5113671;28;20111;-62
2021/12/31 03:27:59;;;;;;;11.82;3.13;;;;;;;-149.78;100.00;50530.13;5113481;28;20047;-62
2021/12/31 03:30:26;;;;;;;11.38;2.88;;;;;;;-149.78;100.00;50524.25;5113836;28;20028;-62
2021/12/31 03:32:53;;;;;;;10.35;2.97;;;;;;;-149.78;100.00;50514.47;5113693;28;20118;-62
2021/12/31 03:35:19;;;;;;;8.55;2.92;;;;;;;-149.78;100.00;50534.03;5113749;28;20039;-63
2021/12/31 03:37:45;;;;;;;11.38;3.28;;;;;;;-149.78;100.00;50530.13;5113310;28;20031;-62
2021/12/31 03:40:11;;;;;;;14.10;3.30;;;;;;;-149.78;100.00;50483.19;5113218;28;20081;-62
2021/12/31 03:42:37;;;;;;;4.88;2.47;;;;;;;-149.78;100.00;50508.59;5113003;28;20118;-62
2021/12/31 03:45:04;;;;;;;16.00;3.40;;;;;;;-149.78;100.00;50518.38;5113117;28;20085;-62
2021/12/31 03:47:29;;;;;;;7.03;2.65;;;;;;;-149.78;100.00;50502.75;5113194;28;20081;-62
2021/12/31 03:49:55;;;;;;;10.05;2.72;;;;;;;-149.78;100.00;50491.00;5113038;28;20040;-62
2021/12/31 03:52:21;;;;;;;7.75;2.75;;;;;;;-149.78;100.00;50506.66;5113086;28;20495;-62
2021/12/31 03:54:46;;;;;;;9.98;3.03;;;;;;;-149.78;100.00;50475.34;5112169;28;20042;-62
2021/12/31 03:57:12;;;;;;;13.15;3.28;;;;;;;-149.78;100.00;50491.00;5111488;28;20043;-62
2021/12/31 03:59:38;;;;;;;9.73;2.53;;;;;;;-149.78;100.00;50510.56;5112797;28;20032;-62
2021/12/31 04:02:03;;;;;;;10.55;3.20;;;;;;;-149.78;100.00;50518.38;5095361;28;20039;-62
2021/12/31 04:04:30;;;;;;;10.05;3.80;;;;;;;-149.78;100.00;50485.13;5117310;28;20032;-62
2021/12/31 04:06:56;;;;;;;10.98;3.47;;;;;;;-149.78;100.00;50498.81;5117542;28;20484;-62
2021/12/31 04:09:21;;;;;;;11.23;3.45;;;;;;;-149.78;100.00;50459.72;5116818;28;20032;-62
2021/12/31 04:11:47;;;;;;;10.77;3.17;;;;;;;-149.78;100.00;50514.47;5115828;28;20026;-62
2021/12/31 04:14:22;;;;;;;15.48;3.45;;;;;;;-149.78;100.00;50492.97;5116486;28;20069;-62
2021/12/31 04:16:52;;;;;;;13.20;3.20;;;;;;;-149.78;100.00;50494.91;5116765;28;20040;-62
2021/12/31 04:19:22;;;;;;;12.90;4.70;;;;;;;-149.78;100.00;50528.16;5115165;28;20062;-68
2021/12/31 04:21:49;;;;;;;10.05;3.08;;;;;;;-149.78;100.00;50487.09;5116224;28;20491;-68
2021/12/31 04:24:27;;;;;;;6.15;2.63;;;;;;;-149.78;100.00;50498.81;5115618;28;20122;-68
2021/12/31 04:26:53;;;;;;;9.15;2.85;;;;;;;-149.78;100.00;50512.50;5100019;28;20035;-68
2021/12/31 04:29:19;;;;;;;15.43;2.85;;;;;;;-149.78;100.00;50471.44;5098258;28;20043;-68
2021/12/31 04:31:44;;;;;;;9.48;2.92;;;;;;;-149.78;100.00;50541.84;5115488;28;20104;-62
2021/12/31 04:34:10;;;;;;;5.07;2.60;;;;;;;-149.78;100.00;50512.50;5116502;28;20046;-62
2021/12/31 04:36:35;;;;;;;8.13;2.42;;;;;;;-149.78;100.00;50522.28;5116482;28;20111;-62
2021/12/31 04:39:02;;;;;;;7.32;2.75;;;;;;;-149.78;100.00;50520.34;5115096;28;20043;-62
2021/12/31 04:41:27;;;;;;;6.97;2.60;;;;;;;-149.78;100.00;50487.09;5115282;28;20051;-62
2021/12/31 04:43:53;;;;;;;11.68;2.63;;;;;;;-149.78;100.00;50510.56;5116212;28;20035;-62
2021/12/31 04:46:19;;;;;;;7.78;2.92;;;;;;;-149.78;100.00;50537.94;5115486;28;20046;-62
2021/12/31 04:48:44;;;;;;;6.05;2.22;;;;;;;-149.78;100.00;50496.88;5116397;28;20041;-62
2021/12/31 04:51:10;;;;;;;8.85;2.28;;;;;;;-149.78;100.00;50494.91;5116760;28;20108;-62
2021/12/31 04:53:36;;;;;;;6.65;2.17;;;;;;;-149.78;100.00;50522.28;5116569;28;20394;-62
2021/12/31 04:56:02;;;;;;;4.72;2.00;;;;;;;-149.78;100.00;50510.56;5116538;28;20389;-62
2021/12/31 04:58:28;;;;;;;8.30;2.50;;;;;;;-149.78;100.00;50512.50;5098340;28;20044;-62
2021/12/31 05:00:53;;;;;;;3.65;2.00;;;;;;;-149.78;100.00;50491.00;5116174;28;20031;-62
2021/12/31 05:03:20;;;;;;;5.05;2.20;;;;;;;-149.78;100.00;50496.88;5116088;28;20126;-62
2021/12/31 05:05:45;;;;;;;5.55;2.30;;;;;;;-149.78;100.00;50518.38;5116351;28;20031;-62
2021/12/31 05:08:11;;;;;;;5.45;2.38;;;;;;;-149.78;100.00;50502.75;5116125;28;20092;-62
2021/12/31 05:10:37;;;;;;;6.68;2.35;;;;;;;-149.78;100.00;50487.09;5116216;28;20095;-62
2021/12/31 05:13:04;;;;;;;8.25;2.50;;;;;;;-149.78;100.00;50491.00;5115978;28;20090;-62
2021/12/31 05:15:35;;;;;;;5.68;2.05;;;;;;;-149.78;100.00;50500.78;5115527;28;20038;-62
2021/12/31 05:18:01;;;;;;;8.55;2.05;;;;;;;-149.78;100.00;50506.66;5115860;28;20123;-62
2021/12/31 05:20:28;;;;;;;4.38;2.10;;;;;;;-149.78;100.00;50479.28;5116314;28;20085;-62
2021/12/31 05:22:57;;;;;;;10.30;3.15;;;;;;;-149.78;100.00;50524.25;5115926;28;20036;-62
2021/12/31 05:25:24;;;;;;;6.63;2.13;;;;;;;-149.78;100.00;50502.75;5115943;28;20057;-63
2021/12/31 05:27:49;;;;;;;11.25;3.83;;;;;;;-149.78;100.00;50491.00;5115826;28;20039;-62
2021/12/31 05:30:15;;;;;;;6.03;2.00;;;;;;;-149.78;100.00;50498.81;5115619;28;20035;-62
2021/12/31 05:32:41;;;;;;;5.85;2.25;;;;;;;-149.78;100.00;50469.50;5115965;28;20031;-62
2021/12/31 05:35:07;;;;;;;7.10;2.05;;;;;;;-149.78;100.00;50534.03;5115679;28;20031;-62
2021/12/31 05:37:33;;;;;;;7.32;2.35;;;;;;;-149.78;100.00;50465.56;5115776;28;20032;-62
2021/12/31 05:39:58;;;;;;;6.47;2.40;;;;;;;-149.78;100.00;50498.81;5115633;28;20034;-62
2021/12/31 05:42:24;;;;;;;7.90;2.20;;;;;;;-149.78;100.00;50510.56;5114159;28;20416;-62
2021/12/31 05:44:50;;;;;;;6.10;1.85;;;;;;;-149.78;100.00;50518.38;5115409;28;20091;-62
2021/12/31 05:47:16;;;;;;;11.30;3.90;;;;;;;-149.78;100.00;50481.22;5115643;28;20039;-62
2021/12/31 05:49:42;;;;;;;2.70;1.60;;;;;;;-149.78;100.00;50516.44;5115638;28;20080;-62
2021/12/31 05:52:08;;;;;;;8.07;2.83;;;;;;;-149.78;100.00;50518.38;5115322;28;20027;-62
2021/12/31 05:54:33;;;;;;;12.52;3.20;;;;;;;-149.78;100.00;50483.19;5115526;28;20043;-62
2021/12/31 05:56:59;;;;;;;4.88;1.75;;;;;;;-149.78;100.00;50514.47;5115265;28;20035;-62
2021/12/31 05:59:25;;;;;;;3.22;1.63;;;;;;;-149.78;100.00;50506.66;5115279;28;20032;-62
2021/12/31 06:01:50;;;;;;;5.63;2.00;;;;;;;-149.78;100.00;50494.91;5115079;28;20031;-62
2021/12/31 06:04:16;;;;;;;5.97;2.50;;;;;;;-149.78;100.00;50467.53;5115124;28;20798;-62
2021/12/31 06:06:43;;;;;;;5.90;1.92;;;;;;;-149.78;100.00;50485.13;5115053;28;20356;-62
2021/12/31 06:09:11;;;;;;;5.40;1.58;;;;;;;-149.78;100.00;50522.28;5115188;28;20131;-62
2021/12/31 06:11:38;;;;;;;9.43;2.53;;;;;;;-149.78;100.00;50518.38;5115185;28;20032;-63
2021/12/31 06:14:05;;;;;;;3.90;1.70;;;;;;;-149.78;100.00;50489.03;5114912;28;20138;-62
2021/12/31 06:16:41;;;;;;;6.20;2.20;;;;;;;-149.78;100.00;50522.28;5115014;28;20542;-62
2021/12/31 06:19:13;;;;;;;4.38;1.73;;;;;;;-149.78;100.00;50510.56;5114650;28;20044;-62
2021/12/31 06:21:41;;;;;;;5.80;1.90;;;;;;;-149.78;100.00;50498.81;5114598;28;20533;-62
2021/12/31 06:24:09;;;;;;;8.23;2.05;;;;;;;-149.78;100.00;50496.88;5114584;28;20031;-62
2021/12/31 06:26:35;;;;;;;5.90;1.92;;;;;;;-149.78;100.00;50510.56;5113518;28;20063;-62
2021/12/31 06:29:02;;;;;;;7.20;1.60;;;;;;;-149.78;100.00;50502.75;5114082;28;20035;-62
2021/12/31 06:31:27;;;;;;;7.70;1.85;;;;;;;-149.78;100.00;50494.91;5114429;28;20028;-62
2021/12/31 06:33:53;;;;;;;7.00;2.13;;;;;;;-149.78;100.00;50498.81;5114225;28;20390;-62
2021/12/31 06:36:20;;;;;;;7.30;1.73;;;;;;;-149.78;100.00;50498.81;5114198;28;20042;-62
2021/12/31 06:38:47;;;;;;;7.45;2.22;;;;;;;-149.78;100.00;50494.91;5114248;28;20035;-62
2021/12/31 06:41:15;;;;;;;11.35;2.25;;;;;;;-149.78;100.00;50514.47;5113887;28;20508;-62
2021/12/31 06:43:42;;;;;;;8.95;2.13;;;;;;;-149.78;100.00;50494.91;5096020;28;20133;-62
2021/12/31 06:46:07;;;;;;;6.20;2.00;;;;;;;-149.78;100.00;50553.59;5114238;28;20123;-62
2021/12/31 06:48:33;;;;;;;4.22;1.85;;;;;;;-149.78;100.00;50463.63;5114390;28;20036;-62
2021/12/31 06:50:59;;;;;;;7.70;2.47;;;;;;;-149.78;100.00;50479.28;5114109;28;20027;-63
2021/12/31 06:53:24;;;;;;;10.10;2.10;;;;;;;-149.78;100.00;50510.56;5114209;28;20048;-62
2021/12/31 06:55:50;;;;;;;6.30;2.33;;;;;;;-149.78;100.00;50479.28;5114168;28;20035;-62
2021/12/31 06:58:16;;;;;;;6.25;2.00;;;;;;;-149.78;100.00;50471.44;5113981;28;20535;-62
2021/12/31 07:00:41;;;;;;;5.82;1.90;;;;;;;-149.78;100.00;50502.75;5114100;28;20036;-63
2021/12/31 07:03:10;;;;;;;4.20;2.00;;;;;;;-149.78;100.00;50518.38;5113937;28;20459;-62
2021/12/31 07:05:36;;;;;;;7.32;1.90;;;;;;;-149.78;100.00;50508.59;5114145;28;20470;-63
2021/12/31 07:08:03;;;;;;;8.13;2.30;;;;;;;-149.78;100.00;50530.13;5114035;28;20583;-63
2021/12/31 07:10:28;;;;;;;9.68;2.42;;;;;;;-149.78;100.00;50475.34;5114090;28;20047;-63
2021/12/31 07:13:04;;;;;;;7.53;1.98;;;;;;;-149.78;100.00;50553.59;5113895;28;20052;-63
2021/12/31 07:15:32;;;;;;;7.97;2.60;;;;;;;-149.78;100.00;50491.00;5114071;28;20034;-63
2021/12/31 07:17:58;;;;;;;6.20;1.55;;;;;;;-149.78;100.00;50498.81;5113818;28;20044;-63
2021/12/31 07:20:24;;;;;;;4.28;2.00;;;;;;;-149.78;100.00;50502.75;5113849;28;20035;-62
2021/12/31 07:22:49;;;;;;;5.65;1.92;;;;;;;-149.78;100.00;50483.19;5113748;28;20043;-63
2021/12/31 07:25:15;;;;;;;7.88;2.35;;;;;;;-149.78;100.00;50494.91;5113821;28;20150;-62
2021/12/31 07:27:41;;;;;;;6.80;1.70;;;;;;;-149.78;100.00;50479.28;5113735;28;20546;-63
2021/12/31 07:30:07;;;;;;;6.68;1.80;;;;;;;-149.78;100.00;50506.66;5113772;28;20050;-63
2021/12/31 07:32:37;;;;;;;6.32;2.00;;;;;;;-149.78;100.00;50506.66;5113854;28;20119;-63
2021/12/31 07:35:04;;;;;;;7.20;2.10;;;;;;;-149.78;100.00;50487.09;5113571;28;20043;-63
2021/12/31 07:37:29;;;;;;;5.38;2.40;;;;;;;-149.78;100.00;50463.63;5115212;28;20036;-62
2021/12/31 07:40:00;;;;;;;7.90;1.90;;;;;;;-149.78;100.00;50475.34;5117909;28;20039;-63
2021/12/31 07:42:26;;;;;;;4.95;1.73;;;;;;;-149.78;100.00;50475.34;5117847;28;20039;-63
2021/12/31 07:44:51;;;;;;;6.50;2.13;;;;;;;-149.78;100.00;50491.00;5117979;28;20038;-62
2021/12/31 07:47:17;;;;;;;3.55;1.77;;;;;;;-149.78;100.00;50510.56;5117785;28;20510;-62
2021/12/31 07:49:43;;;;;;;6.55;2.08;;;;;;;-149.78;100.00;50496.88;5117698;28;20509;-62
2021/12/31 07:52:09;;;;;;;6.50;1.70;;;;;;;-149.78;100.00;50475.34;5117707;28;20091;-63
2021/12/31 07:54:35;;;;;;;10.65;2.13;;;;;;;-149.78;100.00;50506.66;5117759;28;20027;-62
2021/12/31 07:57:01;;;;;;;12.75;2.17;;;;;;;-149.78;100.00;50506.66;5099518;28;20035;-62
2021/12/31 07:59:26;;;;;;;9.57;2.25;;;;;;;-149.78;100.00;50494.91;5117533;28;20046;-62
2021/12/31 08:01:52;;;;;;;7.13;2.30;;;;;;;-149.78;100.00;50477.31;5117492;28;20032;-62
2021/12/31 08:04:17;;;;;;;6.03;1.90;;;;;;;-149.78;100.00;50494.91;5117247;28;20138;-62
2021/12/31 08:06:43;;;;;;;7.13;2.28;;;;;;;-149.78;100.00;50506.66;5117411;28;20036;-62
2021/12/31 08:09:08;;;;;;;10.10;2.22;;;;;;;-149.78;100.00;50514.47;5117299;28;20035;-62
2021/12/31 08:11:34;;;;;;;7.18;2.00;;;;;;;-149.78;100.00;50479.28;5117495;28;20364;-62
2021/12/31 08:14:00;;;;;;;11.13;1.80;;;;;;;-149.78;100.00;50494.91;5117354;28;20040;-62
2021/12/31 08:16:25;;;;;;;9.05;2.10;;;;;;;-149.78;100.00;50510.56;5117345;28;20067;-63
2021/12/31 08:18:51;;;;;;;7.47;1.95;;;;;;;-149.78;100.00;50506.66;5117282;28;20041;-62
2021/12/31 08:21:16;;;;;;;7.63;2.08;;;;;;;-149.78;100.00;50479.28;5116891;28;20036;-63
2021/12/31 08:23:42;;;;;;;9.65;2.35;;;;;;;-149.78;100.00;50475.34;5117086;28;20119;-63
2021/12/31 08:26:08;;;;;;;6.13;2.10;;;;;;;-149.78;100.00;50479.28;5117116;28;20043;-63
2021/12/31 08:28:33;;;;;;;5.57;1.83;;;;;;;-149.78;100.00;50526.22;5117031;28;20035;-62
2021/12/31 08:30:59;;;;;;;7.55;1.98;;;;;;;-149.78;100.00;50483.19;5113759;28;20104;-62
2021/12/31 08:33:26;;;;;;;6.43;2.30;;;;;;;-149.78;100.00;50526.22;5115812;28;20036;-62
2021/12/31 08:35:53;;;;;;;8.57;1.88;;;;;;;-149.78;100.00;50502.75;5115617;28;20034;-62
2021/12/31 08:38:19;;;;;;;4.68;1.92;;;;;;;-149.78;100.00;50498.81;5113162;28;20072;-62
2021/12/31 08:40:44;;;;;;;3.30;1.40;;;;;;;-149.78;100.00;50506.66;5115499;28;20035;-62
2021/12/31 08:43:11;;;;;;;4.88;2.15;;;;;;;-149.78;100.00;50492.97;5115072;28;20036;-63
2021/12/31 08:45:36;;;;;;;6.97;1.30;;;;;;;-149.78;100.00;50491.00;5115171;28;20076;-63
2021/12/31 08:48:03;;;;;;;6.70;1.40;;;;;;;-149.78;100.00;50506.66;5111816;28;20370;-62
2021/12/31 08:50:30;;;;;;;3.10;1.40;;;;;;;-149.78;100.00;50463.63;5095393;28;20436;-62
2021/12/31 08:52:56;;;;;;;3.00;1.13;;;;;;;-149.78;100.00;50479.28;5115465;28;20386;-62
2021/12/31 08:55:22;;;;;;;2.40;1.15;;;;;;;-149.78;100.00;50459.72;5115400;28;20040;-62
2021/12/31 08:57:48;;;;;;;5.47;1.20;;;;;;;-149.78;100.00;50483.19;5115953;28;20070;-62
2021/12/31 09:00:15;;;;;;;3.10;1.15;;;;;;;-149.78;100.00;50522.28;5115836;28;20447;-62
2021/12/31 09:02:40;;;;;;;4.85;1.23;;;;;;;-149.78;100.00;50518.38;5114852;28;20032;-63
2021/12/31 09:05:07;;;;;;;2.47;1.10;;;;;;;-149.78;100.00;50528.16;5113896;28;20489;-63
2021/12/31 09:07:33;;;;;;;2.22;1.05;;;;;;;-149.78;100.00;50479.28;5116198;28;20411;-61
2021/12/31 09:09:59;;;;;;;4.40;1.00;;;;;;;-149.78;100.00;50506.66;5116000;28;20067;-62
2021/12/31 09:12:25;;;;;;;1.10;0.80;;;;;;;-149.78;100.00;50514.47;5115080;28;20084;-62
2021/12/31 09:14:51;;;;;;;1.90;1.15;;;;;;;-149.78;100.00;50518.38;5113062;28;20030;-62
2021/12/31 09:17:17;;;;;;;4.43;1.13;;;;;;;-149.78;100.00;50481.22;5114062;28;20027;-62
2021/12/31 09:19:42;;;;;;;1.27;0.85;;;;;;;-149.78;100.00;50496.88;5095758;28;20035;-63
2021/12/31 09:22:09;;;;;;;2.60;0.95;;;;;;;-149.78;100.00;50506.66;5113849;28;20024;-63
2021/12/31 09:24:35;;;;;;;0.63;0.60;;;;;;;-149.78;100.00;50516.44;5113007;28;20035;-63
2021/12/31 09:27:01;;;;;;;1.67;0.65;;;;;;;-149.78;100.00;50532.06;5113768;28;20048;-63
2021/12/31 09:29:27;;;;;;;1.63;0.80;;;;;;;-149.78;100.00;50506.66;5095162;28;21492;-63
2021/12/31 09:31:53;;;;;;;0.80;0.80;;;;;;;-149.78;100.00;50463.63;5115029;28;20049;-63
2021/12/31 09:34:19;;;;;;;5.00;0.90;;;;;;;-149.78;100.00;50489.03;5097116;28;20042;-63
2021/12/31 09:36:45;;;;;;;1.20;0.80;;;;;;;-149.78;100.00;50498.81;5114919;28;20051;-62
2021/12/31 09:39:12;;;;;;;2.13;0.75;;;;;;;-149.78;100.00;50498.81;5115641;28;20484;-63
2021/12/31 09:41:38;;;;;;;2.90;0.80;;;;;;;-149.78;100.00;50510.56;5115485;28;20471;-62
2021/12/31 09:44:04;;;;;;;1.90;0.90;;;;;;;-149.78;100.00;50487.09;5115461;28;20057;-61
2021/12/31 09:46:29;;;;;;;2.58;0.82;;;;;;;-149.78;100.00;50473.41;5114278;28;20051;-63
2021/12/31 09:48:55;;;;;;;4.70;0.80;;;;;;;-149.78;100.00;50492.97;5111554;28;20425;-63
2021/12/31 09:51:21;;;;;;;3.53;0.90;;;;;;;-149.78;100.00;50471.44;5114269;28;20035;-62
2021/12/31 09:53:47;;;;;;;1.70;1.08;;;;;;;-149.78;100.00;50457.75;5113309;28;20096;-62
2021/12/31 09:56:15;;;;;;;5.00;0.90;;;;;;;-149.78;100.00;50498.81;5110820;28;20062;-62
2021/12/31 09:58:43;;;;;;;1.48;0.80;;;;;;;-149.78;100.00;50483.19;5078914;28;20094;-62
2021/12/31 10:01:09;;;;;;;3.55;0.93;;;;;;;-149.78;100.00;50535.97;5113500;28;20040;-63
2021/12/31 10:03:37;;;;;;;4.10;1.30;;;;;;;-149.78;100.00;50502.75;5113234;28;20106;-63
2021/12/31 10:06:08;;;;;;;4.28;1.10;;;;;;;-149.78;100.00;50510.56;5111239;28;20513;-63
2021/12/31 10:08:43;;;;;;;6.00;1.20;;;;;;;-149.78;100.00;50491.00;5112750;28;20106;-62
2021/12/31 10:11:18;;;;;;;4.82;1.45;;;;;;;-149.78;100.00;50496.88;5112537;28;20047;-63
2021/12/31 10:13:56;;;;;;;6.22;1.42;;;;;;;-149.78;100.00;50489.03;5112770;28;20040;-62
2021/12/31 10:16:26;;;;;;;11.90;1.52;;;;;;;-149.78;100.00;50479.28;5112004;28;20555;-62
2021/12/31 10:19:12;;;;;;;3.75;1.38;;;;;;;-149.78;100.00;50467.53;5111946;28;20032;-62
2021/12/31 10:21:40;;;;;;;5.07;1.38;;;;;;;-149.78;100.00;50487.09;5111392;28;20032;-63
2021/12/31 10:24:32;;;;;;;8.63;1.55;;;;;;;-149.78;100.00;50483.19;5093527;28;20142;-62
2021/12/31 10:27:11;;;;;;;5.57;2.07;;;;;;;-149.78;100.00;50491.00;5110585;28;20024;-62
2021/12/31 10:30:02;;;;;;;7.32;1.38;;;;;;;-149.78;100.00;50500.78;5111747;28;20374;-63
2021/12/31 10:32:30;;;;;;;3.47;1.30;;;;;;;-149.78;100.00;50496.88;5111553;28;20030;-64
2021/12/31 10:35:20;;;;;;;8.38;1.80;;;;;;;-149.78;100.00;50487.09;5108974;28;20057;-63
2021/12/31 10:37:50;;;;;;;6.72;1.75;;;;;;;-149.78;100.00;50471.44;5111934;28;20024;-63
2021/12/31 10:40:29;;;;;;;11.15;1.63;;;;;;;-149.78;100.00;50459.72;5113128;28;20031;-63
2021/12/31 10:43:09;;;;;;;5.15;1.33;;;;;;;-149.78;100.00;50483.19;5110816;28;20118;-63
2021/12/31 10:45:35;;;;;;;9.35;1.67;;;;;;;-149.78;100.00;50534.03;5113164;28;20042;-63
2021/12/31 10:48:08;;;;;;;7.18;1.48;;;;;;;-149.78;100.00;50498.81;5107514;28;20039;-63
2021/12/31 10:50:35;;;;;;;9.75;1.65;;;;;;;-149.78;100.00;50459.72;5108434;28;20038;-63
2021/12/31 10:53:11;;;;;;;10.70;1.95;;;;;;;-149.78;100.00;50481.22;5109682;28;20023;-63
2021/12/31 10:55:41;;;;;;;9.75;2.65;;;;;;;-149.78;100.00;50440.16;5111326;28;20038;-63
2021/12/31 10:58:11;;;;;;;9.63;1.90;;;;;;;-149.78;100.00;50489.03;5111416;28;20401;-63
2021/12/31 11:00:39;;;;;;;8.15;1.60;;;;;;;-149.78;100.00;50459.72;5087716;28;20448;-63
2021/12/31 11:03:06;;;;;;;11.40;1.80;;;;;;;-149.78;100.00;50485.13;5109803;28;20066;-64
2021/12/31 11:05:34;;;;;;;5.03;1.60;;;;;;;-149.78;100.00;50504.69;5109741;27;20028;-63
2021/12/31 11:08:03;;;;;;;12.93;2.03;;;;;;;-149.78;100.00;50457.75;5109309;28;20059;-63